Decoded Metar for KNFE ( in _UNIDENTIFIED) (IATA:N/A) | Meteo·Mobile Aviation Weather
aviador You're here:

KNFE Decoded Metar

in _UNIDENTIFIED
Report Time2019-02-21 22:56:00
UTC Time2019-02-21 23:48:49
Flight Rules vfr VFR
Wind120° at 03 kt
W.Decomp.*RWY 05: 0.6 kt HW 2.9 kt RCW
W.Rank120° ranks 28
Current wind is below 120° avg. (6.1)
Visibility9999 m
Phenomena:N/A
Clouds:Few 012 Hf
Expected CloudBase > 1,600 ft AGL from Temp-Dew spread
CeilingNone
Temp13°C (ISA -2)
Dew Point09°C (77% RH)
AAT11.7°C
QNH1019 hPa
Density Alt-269 ft
Elevation13 ft
Report Wrong Elevation
Raw Report
KNFE 212256Z AUTO 12003KT 10SM FEW012 13/09 A3009 RMK AO2 SLP192
T01280094=

Extra information for KNFE:More info

Metar Taf Metar & Taf Last 4 Metars F.Rules Stats Wind Profile Meteogram Temp Stats Metar ALERT Operation Metar Decoded Social comments